Time;durP1;ratioP1;P1;durP2;ratioP2;P2;SDS_P1;SDS_P2;PMS_P1;PMS_P2;Temp;Humidity;BMP_temperature;BMP_pressure;BME280_temperature;BME280_humidity;BME280_pressure;Samples;Min_cycle;Max_cycle;Signal;HPM_P1;HPM_P2
2023/09/21 00:31:05;;;;;;;16.85;11.30;;;;;;;17.03;95.58;99841.97;5092162;23;20146;-88
2023/09/21 00:33:36;;;;;;;16.33;10.95;;;;;;;17.02;96.09;99829.19;5024859;28;20800;-88
2023/09/21 00:36:04;;;;;;;17.02;11.68;;;;;;;17.00;95.68;99825.97;5024636;28;20033;-87
2023/09/21 00:38:31;;;;;;;19.63;11.95;;;;;;;17.00;95.32;99823.16;5032677;28;20907;-87
2023/09/21 00:40:58;;;;;;;16.63;11.80;;;;;;;16.94;95.44;99814.28;5031255;28;20055;-87
2023/09/21 00:43:24;;;;;;;19.00;12.25;;;;;;;17.00;95.56;99814.78;5032662;28;20091;-86
2023/09/21 00:45:57;;;;;;;17.67;11.40;;;;;;;17.01;94.94;99813.59;5032276;28;20033;-87
2023/09/21 00:48:25;;;;;;;17.40;12.50;;;;;;;17.00;95.24;99817.56;5030812;28;20546;-87
2023/09/21 00:50:57;;;;;;;17.60;12.10;;;;;;;16.99;95.42;99814.00;5032651;28;20033;-87
2023/09/21 00:53:27;;;;;;;18.17;12.00;;;;;;;16.98;95.03;99808.75;5027001;28;20342;-88
2023/09/21 00:55:59;;;;;;;17.33;11.90;;;;;;;17.00;95.24;99809.19;5031839;28;20439;-87
2023/09/21 00:58:25;;;;;;;17.92;11.88;;;;;;;16.98;95.47;99804.00;5032312;28;20140;-88
2023/09/21 01:00:54;;;;;;;16.48;11.23;;;;;;;16.94;94.96;99791.94;5038205;28;20071;-88
2023/09/21 01:03:24;;;;;;;16.10;11.27;;;;;;;16.96;94.73;99789.59;5031626;28;20037;-88
2023/09/21 01:05:50;;;;;;;18.17;11.30;;;;;;;16.96;94.73;99792.38;5032404;28;20035;-87
2023/09/21 01:08:22;;;;;;;15.77;11.15;;;;;;;16.98;94.63;99787.22;5014585;28;20021;-88
2023/09/21 01:10:49;;;;;;;18.52;11.63;;;;;;;16.95;94.93;99785.19;5031505;28;20037;-88
2023/09/21 01:13:18;;;;;;;17.25;10.93;;;;;;;16.93;94.81;99787.53;5032224;28;20033;-87
2023/09/21 01:15:45;;;;;;;17.45;11.25;;;;;;;16.93;94.48;99776.34;5035495;28;20036;-88
2023/09/21 01:18:12;;;;;;;17.35;11.82;;;;;;;16.89;94.73;99769.91;5032433;28;20068;-88
2023/09/21 01:20:37;;;;;;;15.95;11.02;;;;;;;16.88;94.66;99771.06;5032646;28;20056;-87
2023/09/21 01:23:15;;;;;;;15.68;11.18;;;;;;;16.88;95.00;99776.66;5033149;28;20349;-86
2023/09/21 01:25:50;;;;;;;16.65;11.50;;;;;;;16.84;94.95;99771.03;5031745;28;20048;-87
2023/09/21 01:28:19;;;;;;;16.55;10.90;;;;;;;16.83;95.76;99757.41;5016554;28;20461;-88
2023/09/21 01:30:45;;;;;;;17.08;10.93;;;;;;;16.84;94.66;99756.25;5035901;28;20022;-87
2023/09/21 01:33:17;;;;;;;16.55;11.48;;;;;;;16.83;95.11;99757.41;5034162;28;20060;-87
2023/09/21 01:35:56;;;;;;;16.42;11.18;;;;;;;16.77;95.06;99751.34;5028932;28;20033;-91
2023/09/21 01:38:28;;;;;;;17.10;11.88;;;;;;;16.80;95.10;99747.03;5036409;28;20021;-88
2023/09/21 01:40:54;;;;;;;16.60;11.23;;;;;;;16.76;95.02;99741.38;5033233;28;20365;-87
2023/09/21 01:43:21;;;;;;;17.15;11.10;;;;;;;16.78;95.01;99741.78;5034157;28;20022;-87
2023/09/21 01:45:48;;;;;;;16.35;10.90;;;;;;;16.80;94.66;99741.44;5037782;28;20069;-88
2023/09/21 01:48:15;;;;;;;15.35;10.77;;;;;;;16.79;94.52;99729.44;5052192;28;20097;-88
2023/09/21 01:50:47;;;;;;;15.75;10.82;;;;;;;16.80;94.38;99728.25;5050130;28;20033;-88
2023/09/21 01:53:17;;;;;;;16.50;10.90;;;;;;;16.81;94.77;99729.09;5033561;28;20033;-85
2023/09/21 01:55:47;;;;;;;16.27;10.82;;;;;;;16.80;94.04;99727.47;5035118;28;20535;-90
2023/09/21 01:58:22;;;;;;;16.63;11.02;;;;;;;16.77;94.18;99725.41;5032863;28;20969;-89
2023/09/21 02:00:49;;;;;;;17.30;11.20;;;;;;;16.77;94.15;99728.22;5026859;28;20742;-88
2023/09/21 02:03:20;;;;;;;17.52;10.88;;;;;;;16.73;94.56;99722.56;5031009;28;20365;-88
2023/09/21 02:05:46;;;;;;;17.38;11.10;;;;;;;16.73;94.37;99724.53;5013902;28;20030;-87
2023/09/21 02:08:13;;;;;;;15.75;10.35;;;;;;;16.74;93.97;99726.16;5032144;28;20066;-87
2023/09/21 02:10:40;;;;;;;17.25;11.30;;;;;;;16.74;93.78;99715.00;5031605;28;20037;-87
2023/09/21 02:13:06;;;;;;;15.45;10.93;;;;;;;16.73;93.63;99711.41;5032491;28;20022;-87
2023/09/21 02:15:39;;;;;;;16.88;11.32;;;;;;;16.74;93.76;99715.81;5035615;28;20033;-87
2023/09/21 02:18:06;;;;;;;15.80;10.70;;;;;;;16.73;93.85;99722.56;5036418;28;20517;-89
2023/09/21 02:20:34;;;;;;;15.40;10.70;;;;;;;16.72;94.52;99717.38;5039591;28;20081;-88
2023/09/21 02:23:02;;;;;;;15.85;10.80;;;;;;;16.69;93.99;99716.94;5040050;28;20035;-88
2023/09/21 02:25:34;;;;;;;18.35;10.38;;;;;;;16.64;94.51;99706.06;5039567;28;20144;-88
2023/09/21 02:28:06;;;;;;;17.48;11.10;;;;;;;16.63;94.19;99706.47;5042270;28;20036;-88
2023/09/21 02:30:32;;;;;;;17.70;10.90;;;;;;;16.60;94.62;99704.41;5043330;28;20488;-88
2023/09/21 02:32:59;;;;;;;16.48;11.27;;;;;;;16.60;94.45;99707.19;5045767;28;20057;-90
2023/09/21 02:35:27;;;;;;;16.05;10.15;;;;;;;16.56;94.61;99706.34;5048731;28;20089;-90
2023/09/21 02:37:54;;;;;;;16.33;10.32;;;;;;;16.52;95.07;99697.94;5052270;28;20017;-90
2023/09/21 02:40:21;;;;;;;15.73;10.63;;;;;;;16.50;95.34;99697.50;5052441;28;20035;-88
2023/09/21 02:42:49;;;;;;;16.80;11.13;;;;;;;16.46;95.66;99697.44;5050238;28;20025;-87
2023/09/21 02:45:17;;;;;;;14.40;10.52;;;;;;;16.45;96.45;99695.81;5050469;28;20040;-87
2023/09/21 02:47:43;;;;;;;16.60;11.02;;;;;;;16.38;96.03;99688.13;5046887;28;20009;-89
2023/09/21 02:50:21;;;;;;;17.40;11.45;;;;;;;16.38;96.34;99688.13;5050031;28;20085;-89
2023/09/21 02:52:49;;;;;;;16.42;10.90;;;;;;;16.36;96.18;99692.47;5047476;28;20025;-89
2023/09/21 02:55:18;;;;;;;17.02;11.35;;;;;;;16.34;96.57;99692.84;5045525;28;20029;-88
2023/09/21 02:57:47;;;;;;;15.25;10.43;;;;;;;16.32;96.44;99692.44;5043344;28;20026;-89
2023/09/21 03:00:34;;;;;;;16.98;10.70;;;;;;;16.31;96.67;99693.59;5039294;28;20424;-88
2023/09/21 03:03:04;;;;;;;14.68;10.07;;;;;;;16.27;97.05;99678.78;5043049;28;20018;-87
2023/09/21 03:05:33;;;;;;;16.52;10.90;;;;;;;16.29;96.96;99690.38;5031337;28;20030;-87
2023/09/21 03:08:13;;;;;;;16.23;11.35;;;;;;;16.27;97.38;99680.78;5023784;28;20030;-88
2023/09/21 03:10:45;;;;;;;16.52;11.07;;;;;;;16.24;97.36;99678.72;5023949;28;20137;-88
2023/09/21 03:13:18;;;;;;;16.95;10.80;;;;;;;16.21;97.93;99674.69;5037914;28;20029;-88
2023/09/21 03:15:49;;;;;;;17.83;11.70;;;;;;;16.19;98.12;99672.28;5038034;28;20025;-88
2023/09/21 03:18:15;;;;;;;17.25;11.18;;;;;;;16.18;98.06;99676.25;5048318;28;20101;-88
2023/09/21 03:20:40;;;;;;;16.50;11.40;;;;;;;16.17;98.30;99676.63;5055458;28;20021;-88
2023/09/21 03:23:10;;;;;;;16.25;11.32;;;;;;;16.15;98.30;99676.19;5072798;28;20021;-87
2023/09/21 03:25:41;;;;;;;17.50;11.50;;;;;;;16.15;98.68;99677.00;5074836;28;20029;-88
2023/09/21 03:28:13;;;;;;;17.50;11.40;;;;;;;16.13;98.44;99678.56;5075663;28;20062;-87
2023/09/21 03:30:48;;;;;;;16.88;11.27;;;;;;;16.14;98.97;99680.16;5055379;28;20018;-88
2023/09/21 03:33:18;;;;;;;17.07;11.50;;;;;;;16.16;98.94;99666.63;5055680;28;20041;-87
2023/09/21 03:35:44;;;;;;;17.40;11.52;;;;;;;16.15;98.89;99667.84;5055652;28;20319;-88
2023/09/21 03:38:12;;;;;;;17.20;11.82;;;;;;;16.15;99.00;99674.22;5055780;28;20016;-89
2023/09/21 03:40:39;;;;;;;17.33;11.52;;;;;;;16.14;99.18;99669.00;5036551;28;20034;-88
2023/09/21 03:43:06;;;;;;;16.92;11.30;;;;;;;16.14;99.29;99667.00;5051855;28;20033;-88
2023/09/21 03:45:32;;;;;;;18.00;11.30;;;;;;;16.09;99.61;99658.16;5053543;28;20044;-89
2023/09/21 03:47:59;;;;;;;16.85;11.60;;;;;;;16.11;99.41;99664.16;5054836;28;20021;-89
2023/09/21 03:50:25;;;;;;;17.38;11.25;;;;;;;16.12;99.32;99663.00;5055252;28;20013;-89
2023/09/21 03:52:53;;;;;;;17.23;11.43;;;;;;;16.13;99.79;99659.03;5055309;28;20061;-89
2023/09/21 03:55:19;;;;;;;17.10;11.65;;;;;;;16.14;99.45;99646.69;5042024;28;20075;-89
2023/09/21 03:57:48;;;;;;;17.48;11.02;;;;;;;16.13;99.55;99651.44;5064417;28;20048;-88
2023/09/21 04:00:39;;;;;;;16.58;11.57;;;;;;;16.12;99.58;99643.47;5048618;28;20025;-88
2023/09/21 04:03:08;;;;;;;17.17;11.50;;;;;;;16.17;99.83;99645.91;5031694;28;20385;-89
2023/09/21 04:05:35;;;;;;;17.48;10.93;;;;;;;16.19;99.28;99649.97;5034240;28;20494;-88
2023/09/21 04:08:02;;;;;;;15.77;11.07;;;;;;;16.16;99.46;99639.56;5038623;28;20010;-89
2023/09/21 04:10:28;;;;;;;17.15;11.15;;;;;;;16.24;99.21;99636.88;5034684;28;20148;-89
2023/09/21 04:12:56;;;;;;;17.98;11.55;;;;;;;16.25;99.80;99635.69;5046777;28;20025;-89
2023/09/21 04:15:26;;;;;;;16.83;11.77;;;;;;;16.31;99.36;99634.19;5030375;28;20053;-87
2023/09/21 04:17:53;;;;;;;16.70;11.43;;;;;;;16.34;99.19;99636.22;5030995;28;20034;-89
2023/09/21 04:20:19;;;;;;;16.58;11.73;;;;;;;16.36;99.35;99639.47;5052061;28;20077;-90
2023/09/21 04:22:47;;;;;;;17.27;12.10;;;;;;;16.33;99.51;99635.44;5052648;28;20117;-90
2023/09/21 04:25:14;;;;;;;17.90;12.10;;;;;;;16.42;99.75;99648.31;5041402;28;20034;-91
2023/09/21 04:27:41;;;;;;;17.88;12.40;;;;;;;16.43;99.53;99652.72;5038636;28;20112;-90
2023/09/21 04:30:09;;;;;;;17.77;11.95;;;;;;;16.43;99.69;99647.94;5050316;28;20030;-89
2023/09/21 04:32:38;;;;;;;18.58;11.80;;;;;;;16.44;99.70;99649.53;5051609;28;20046;-89
2023/09/21 04:35:05;;;;;;;17.67;11.90;;;;;;;16.45;99.94;99644.75;5047353;28;20120;-89
2023/09/21 04:37:33;;;;;;;16.90;12.10;;;;;;;16.48;99.61;99655.97;5035872;28;20048;-91
2023/09/21 04:39:59;;;;;;;18.52;12.15;;;;;;;16.52;99.97;99644.88;5035196;28;20040;-91
2023/09/21 04:42:27;;;;;;;18.45;12.18;;;;;;;16.53;99.64;99640.91;5035418;28;20033;-91
2023/09/21 04:44:55;;;;;;;18.15;11.65;;;;;;;16.54;100.00;99631.34;5037285;28;20141;-90
2023/09/21 04:47:20;;;;;;;18.98;12.45;;;;;;;16.58;100.00;99634.19;5040727;28;20017;-91
2023/09/21 04:49:45;;;;;;;18.83;12.60;;;;;;;16.56;100.00;99628.97;5035979;28;20114;-90
2023/09/21 04:52:11;;;;;;;18.95;12.48;;;;;;;16.57;100.00;99621.44;5033244;28;20026;-90
2023/09/21 04:54:36;;;;;;;17.63;12.40;;;;;;;16.58;100.00;99623.81;5035204;28;20085;-91
2023/09/21 04:57:01;;;;;;;19.05;12.05;;;;;;;16.59;100.00;99624.63;5037666;28;20037;-90
2023/09/21 04:59:27;;;;;;;17.15;12.50;;;;;;;16.57;100.00;99621.44;5034189;28;20483;-90
2023/09/21 05:01:53;;;;;;;17.73;12.10;;;;;;;16.60;100.00;99629.03;5032930;28;20071;-90
2023/09/21 05:04:19;;;;;;;18.00;11.90;;;;;;;16.58;100.00;99620.25;5032550;28;20072;-91
2023/09/21 05:06:45;;;;;;;18.80;12.00;;;;;;;16.60;100.00;99634.59;5029241;28;20028;-90
2023/09/21 05:09:11;;;;;;;17.67;12.70;;;;;;;16.59;100.00;99628.22;5027351;28;20029;-89
2023/09/21 05:11:38;;;;;;;17.17;12.00;;;;;;;16.57;100.00;99627.00;5026082;28;20025;-90
2023/09/21 05:14:06;;;;;;;16.70;12.50;;;;;;;16.57;100.00;99629.78;5028752;28;20017;-90
2023/09/21 05:16:32;;;;;;;18.42;12.90;;;;;;;16.56;100.00;99633.78;5029400;28;20043;-90
2023/09/21 05:18:58;;;;;;;18.35;12.73;;;;;;;16.57;100.00;99627.78;5052236;28;20143;-90
2023/09/21 05:21:23;;;;;;;18.83;12.88;;;;;;;16.58;100.00;99615.44;5037929;28;20052;-89
2023/09/21 05:23:48;;;;;;;17.83;12.70;;;;;;;16.63;100.00;99619.91;5034433;28;20068;-90
2023/09/21 05:26:14;;;;;;;18.23;13.30;;;;;;;16.66;100.00;99608.78;5033941;28;20029;-91
2023/09/21 05:28:39;;;;;;;19.17;13.25;;;;;;;16.68;100.00;99609.22;5034852;28;20025;-91
2023/09/21 05:31:04;;;;;;;18.00;13.38;;;;;;;16.69;100.00;99608.03;5020126;28;20044;-90
2023/09/21 05:33:30;;;;;;;17.70;12.35;;;;;;;16.73;100.00;99610.06;5041234;22;20045;-65
2023/09/21 05:35:56;;;;;;;18.73;12.48;;;;;;;16.71;100.00;99601.28;5011169;28;21941;-65
2023/09/21 05:38:22;;;;;;;18.15;11.80;;;;;;;16.73;100.00;99610.06;5014179;28;20385;-65
2023/09/21 05:40:48;;;;;;;17.90;10.60;;;;;;;16.73;100.00;99602.50;5013186;28;20200;-65
2023/09/21 05:43:15;;;;;;;18.30;10.88;;;;;;;16.75;100.00;99613.28;5013831;28;20030;-66
2023/09/21 05:45:40;;;;;;;16.60;11.15;;;;;;;16.77;100.00;99606.13;5014141;28;20036;-66
2023/09/21 05:48:14;;;;;;;15.63;10.63;;;;;;;16.78;100.00;99602.16;5011927;28;20037;-66
2023/09/21 05:50:41;;;;;;;18.27;10.90;;;;;;;16.83;100.00;99601.84;5013535;28;20029;-66
2023/09/21 05:53:07;;;;;;;15.73;10.55;;;;;;;16.89;100.00;99607.06;5011998;28;20037;-66
2023/09/21 05:55:32;;;;;;;16.25;10.60;;;;;;;16.91;100.00;99602.72;5013681;28;20025;-65
2023/09/21 05:57:57;;;;;;;17.58;10.77;;;;;;;16.95;100.00;99600.00;5022057;28;20060;-66
2023/09/21 06:00:23;;;;;;;18.23;11.10;;;;;;;16.97;100.00;99608.78;5033641;28;20109;-66
2023/09/21 06:02:48;;;;;;;20.08;11.30;;;;;;;16.96;100.00;99608.00;5017015;28;20029;-66
2023/09/21 06:05:13;;;;;;;17.40;11.23;;;;;;;16.95;100.00;99600.00;5013594;28;20037;-66
2023/09/21 06:07:39;;;;;;;15.82;10.98;;;;;;;16.95;100.00;99605.59;5018286;28;20029;-65
2023/09/21 06:10:06;;;;;;;17.20;10.50;;;;;;;16.93;100.00;99602.34;5024974;28;20025;-65
2023/09/21 06:12:31;;;;;;;16.58;10.75;;;;;;;16.90;100.00;99598.34;5016843;28;20021;-66
2023/09/21 06:14:58;;;;;;;16.58;10.77;;;;;;;16.91;100.00;99599.13;5023844;28;20389;-65
2023/09/21 06:17:24;;;;;;;17.17;11.10;;;;;;;16.90;100.00;99600.31;5012908;28;20034;-66
2023/09/21 06:19:53;;;;;;;16.73;11.20;;;;;;;16.91;100.00;99613.09;5012035;28;20037;-65
2023/09/21 06:22:18;;;;;;;17.35;10.98;;;;;;;16.97;100.00;99614.38;5012387;28;20608;-66
2023/09/21 06:24:46;;;;;;;18.40;11.52;;;;;;;17.08;100.00;99614.53;5007624;28;20034;-65
2023/09/21 06:27:12;;;;;;;15.75;11.18;;;;;;;17.14;100.00;99619.38;5010556;28;20538;-65
2023/09/21 06:29:38;;;;;;;16.80;11.55;;;;;;;17.17;100.00;99612.25;5010478;28;20040;-64
2023/09/21 06:32:07;;;;;;;18.27;12.00;;;;;;;17.12;100.00;99609.78;5008392;28;20128;-64
2023/09/21 06:34:33;;;;;;;18.33;11.70;;;;;;;17.11;100.00;99613.75;5010438;28;20057;-64
2023/09/21 06:36:59;;;;;;;16.25;11.43;;;;;;;17.06;100.00;99616.91;5008655;28;20034;-64
2023/09/21 06:39:25;;;;;;;18.92;11.90;;;;;;;17.00;100.00;99620.00;5011998;28;20026;-65
2023/09/21 06:41:50;;;;;;;17.65;11.82;;;;;;;16.98;100.00;99610.41;5009698;28;20030;-65
2023/09/21 06:44:18;;;;;;;18.45;11.85;;;;;;;16.96;100.00;99615.56;5010275;28;20492;-65
2023/09/21 06:46:43;;;;;;;17.85;12.05;;;;;;;16.94;100.00;99624.34;5011138;28;20030;-65
2023/09/21 06:49:09;;;;;;;17.95;11.70;;;;;;;16.94;100.00;99617.97;5011891;28;20048;-65
2023/09/21 06:51:35;;;;;;;16.70;11.68;;;;;;;16.93;100.00;99616.31;5011770;28;20816;-65
2023/09/21 06:54:00;;;;;;;16.88;11.55;;;;;;;16.93;100.00;99619.94;5011679;28;20121;-65
2023/09/21 06:56:29;;;;;;;18.55;11.88;;;;;;;16.96;100.00;99615.56;5011709;28;20030;-65
2023/09/21 06:58:55;;;;;;;18.08;11.85;;;;;;;16.97;100.00;99617.19;5011981;28;20072;-65
2023/09/21 07:01:21;;;;;;;19.10;12.23;;;;;;;16.99;100.00;99624.00;5011684;28;20073;-65
2023/09/21 07:03:48;;;;;;;18.58;11.93;;;;;;;16.98;100.00;99619.59;5023293;28;20029;-64
2023/09/21 07:06:14;;;;;;;17.20;11.98;;;;;;;16.97;100.00;99625.56;5031336;28;20064;-66
2023/09/21 07:08:39;;;;;;;18.92;12.52;;;;;;;16.97;100.00;99637.56;5031014;28;20069;-66
2023/09/21 07:11:05;;;;;;;17.77;12.00;;;;;;;16.97;100.00;99645.94;5031220;28;20029;-66
2023/09/21 07:13:31;;;;;;;18.02;12.40;;;;;;;16.96;100.00;99635.94;5024570;28;20057;-66
2023/09/21 07:15:58;;;;;;;18.25;12.52;;;;;;;16.83;100.00;99635.34;5010646;28;20065;-66
2023/09/21 07:18:25;;;;;;;17.95;12.48;;;;;;;16.84;100.00;99634.16;5009244;28;20080;-66
2023/09/21 07:20:51;;;;;;;17.15;12.40;;;;;;;16.83;100.00;99631.72;5010335;28;20037;-67
2023/09/21 07:23:16;;;;;;;18.27;12.40;;;;;;;16.79;100.00;99628.91;5011129;28;20766;-67
2023/09/21 07:25:41;;;;;;;19.15;12.60;;;;;;;16.74;100.00;99623.66;5010905;28;20034;-67
2023/09/21 07:28:07;;;;;;;18.73;12.45;;;;;;;16.77;100.00;99630.47;5011533;28;20350;-67
2023/09/21 07:30:35;;;;;;;17.83;12.88;;;;;;;16.74;100.00;99622.84;5010916;28;20034;-67
2023/09/21 07:33:00;;;;;;;18.95;12.80;;;;;;;16.77;100.00;99617.28;5011051;28;20053;-67
2023/09/21 07:35:26;;;;;;;17.38;12.55;;;;;;;16.78;100.00;99618.13;5009627;28;20034;-67
2023/09/21 07:37:52;;;;;;;18.27;12.77;;;;;;;16.78;100.00;99618.13;5013108;28;20058;-67
2023/09/21 07:40:18;;;;;;;18.73;12.77;;;;;;;16.75;100.00;99619.69;5013027;28;20069;-67
2023/09/21 07:42:45;;;;;;;18.30;13.10;;;;;;;16.78;100.00;99624.50;5009720;28;20107;-67
2023/09/21 07:45:11;;;;;;;18.35;13.13;;;;;;;16.77;100.00;99628.47;5011301;28;20034;-64
2023/09/21 07:47:40;;;;;;;18.90;13.18;;;;;;;16.76;100.00;99620.47;5011346;28;20041;-67
2023/09/21 07:50:06;;;;;;;18.40;13.30;;;;;;;16.78;100.00;99632.06;5010306;28;20034;-65
2023/09/21 07:52:35;;;;;;;18.95;13.32;;;;;;;16.78;100.00;99623.69;5010606;28;20032;-67
2023/09/21 07:55:04;;;;;;;18.65;12.93;;;;;;;16.77;100.00;99624.88;5011189;28;20483;-68
2023/09/21 07:57:33;;;;;;;18.85;12.80;;;;;;;16.77;100.00;99624.88;5010323;28;20087;-65
2023/09/21 07:59:59;;;;;;;20.30;13.45;;;;;;;16.72;100.00;99634.38;5010908;28;20038;-66
2023/09/21 08:02:25;;;;;;;19.15;13.20;;;;;;;16.74;100.00;99636.78;5010289;28;20345;-67
2023/09/21 08:04:50;;;;;;;17.75;12.68;;;;;;;16.75;100.00;99641.19;5011026;28;20036;-66
2023/09/21 08:07:23;;;;;;;18.67;13.15;;;;;;;16.72;100.00;99633.59;5009693;28;20064;-66
2023/09/21 08:09:48;;;;;;;19.00;13.75;;;;;;;16.74;100.00;99645.19;5011161;28;20072;-66
2023/09/21 08:12:13;;;;;;;19.58;13.40;;;;;;;16.72;100.00;99641.97;5009900;28;20117;-66
2023/09/21 08:14:39;;;;;;;19.13;13.20;;;;;;;16.72;100.00;99647.56;5010757;28;20124;-66
2023/09/21 08:17:04;;;;;;;18.90;13.38;;;;;;;16.70;100.00;99645.13;5010184;28;20041;-66
2023/09/21 08:19:30;;;;;;;19.85;13.30;;;;;;;16.69;100.00;99647.13;5010950;28;20026;-67
2023/09/21 08:21:55;;;;;;;17.88;13.00;;;;;;;16.69;100.00;99657.47;5010528;28;20034;-67
2023/09/21 08:24:21;;;;;;;18.85;13.25;;;;;;;16.65;100.00;99657.44;5010835;28;20152;-67
2023/09/21 08:26:46;;;;;;;19.10;13.48;;;;;;;16.66;100.00;99661.84;5010754;28;20373;-67
2023/09/21 08:29:14;;;;;;;17.88;13.50;;;;;;;16.65;100.00;99673.38;5010897;28;20033;-67
2023/09/21 08:31:41;;;;;;;18.63;13.75;;;;;;;16.63;100.00;99670.94;5010882;28;20084;-67
2023/09/21 08:34:06;;;;;;;19.25;13.63;;;;;;;16.65;100.00;99678.97;5010624;28;20045;-67
2023/09/21 08:36:31;;;;;;;18.77;13.57;;;;;;;16.64;100.00;99689.31;5010510;28;20551;-67
2023/09/21 08:38:57;;;;;;;18.17;13.80;;;;;;;16.67;100.00;99693.38;5010577;28;20030;-67
2023/09/21 08:41:27;;;;;;;18.38;13.45;;;;;;;16.66;100.00;99691.75;5010844;28;20092;-67
2023/09/21 08:43:54;;;;;;;19.33;13.85;;;;;;;16.66;100.00;99700.13;5016817;28;20043;-67
2023/09/21 08:46:19;;;;;;;18.38;13.50;;;;;;;16.64;100.00;99694.91;5030469;28;20032;-67
2023/09/21 08:48:47;;;;;;;19.48;14.07;;;;;;;16.63;100.00;99698.88;5012335;28;20037;-67
2023/09/21 08:51:15;;;;;;;19.85;14.18;;;;;;;16.51;100.00;99694.31;5008834;28;20064;-66
2023/09/21 08:53:41;;;;;;;19.40;14.32;;;;;;;16.55;100.00;99716.69;5011199;28;20121;-66
2023/09/21 08:56:07;;;;;;;19.02;13.68;;;;;;;16.51;100.00;99719.44;5014186;28;20295;-66
2023/09/21 08:58:37;;;;;;;18.65;13.80;;;;;;;16.46;100.00;99716.97;5014077;28;20040;-66
2023/09/21 09:01:03;;;;;;;19.70;13.45;;;;;;;16.44;100.00;99727.69;5014011;28;20065;-66
2023/09/21 09:03:28;;;;;;;18.85;13.13;;;;;;;16.42;100.00;99734.84;5014258;28;20061;-67
2023/09/21 09:05:55;;;;;;;18.02;12.45;;;;;;;16.41;100.00;99725.66;5014188;28;20030;-66
2023/09/21 09:08:21;;;;;;;18.48;12.80;;;;;;;16.42;100.00;99724.47;5014333;28;20038;-67
2023/09/21 09:10:46;;;;;;;18.40;12.48;;;;;;;16.44;100.00;99713.75;5014204;28;20030;-67
2023/09/21 09:13:12;;;;;;;18.52;12.90;;;;;;;16.45;100.00;99723.75;5013688;28;20104;-64
2023/09/21 09:15:38;;;;;;;17.60;12.40;;;;;;;16.48;100.00;99711.81;5012186;28;20116;-66
2023/09/21 09:18:05;;;;;;;17.90;12.55;;;;;;;16.49;100.00;99707.84;5012618;28;20037;-65
2023/09/21 09:20:32;;;;;;;18.48;13.02;;;;;;;16.56;100.00;99717.53;5014708;28;20034;-66
2023/09/21 09:23:00;;;;;;;19.13;12.98;;;;;;;16.57;100.00;99725.50;5011680;28;20130;-66
2023/09/21 09:25:26;;;;;;;16.30;11.60;;;;;;;16.52;100.00;99729.44;5013185;28;20033;-66
2023/09/21 09:27:51;;;;;;;14.73;10.75;;;;;;;16.49;100.00;99732.16;5012397;28;20454;-65
2023/09/21 09:30:20;;;;;;;14.48;10.57;;;;;;;16.46;100.00;99727.31;5013204;28;20038;-65
2023/09/21 09:32:47;;;;;;;16.20;10.50;;;;;;;16.41;100.00;99720.06;5007185;28;20053;-66
2023/09/21 09:35:13;;;;;;;15.65;11.00;;;;;;;16.41;100.00;99708.09;5013398;28;20029;-66
2023/09/21 09:37:48;;;;;;;15.30;10.80;;;;;;;16.40;100.00;99684.16;5013501;28;20096;-66
2023/09/21 09:40:18;;;;;;;15.20;11.25;;;;;;;16.49;100.00;99696.66;5013417;28;20029;-66
2023/09/21 09:42:43;;;;;;;15.07;10.88;;;;;;;16.48;100.00;99694.25;5012691;28;20034;-66
2023/09/21 09:45:16;;;;;;;15.35;11.32;;;;;;;16.45;100.00;99693.03;5013484;28;20025;-66
2023/09/21 09:47:47;;;;;;;15.50;11.15;;;;;;;16.44;100.00;99705.38;5025678;28;20037;-66
2023/09/21 09:50:17;;;;;;;16.08;11.30;;;;;;;16.47;100.00;99699.06;5033270;28;20416;-66
2023/09/21 09:52:49;;;;;;;15.90;11.32;;;;;;;16.59;100.00;99695.25;5017370;28;20026;-66
2023/09/21 09:55:15;;;;;;;16.42;11.25;;;;;;;16.64;100.00;99703.28;5009487;28;20041;-66
2023/09/21 09:57:41;;;;;;;17.00;11.45;;;;;;;16.68;100.00;99701.38;5013096;28;20041;-66
2023/09/21 10:00:15;;;;;;;16.58;11.40;;;;;;;16.76;100.00;99702.28;5013222;28;20030;-66
2023/09/21 10:02:42;;;;;;;18.77;12.60;;;;;;;16.78;100.00;99701.91;5013019;28;20473;-66
2023/09/21 10:05:08;;;;;;;18.08;12.60;;;;;;;16.80;100.00;99699.53;5011825;28;20041;-66
2023/09/21 10:07:34;;;;;;;17.38;12.30;;;;;;;16.89;100.00;99688.91;5012301;28;20030;-66
2023/09/21 10:10:00;;;;;;;17.40;12.35;;;;;;;16.98;100.00;99700.63;5012652;28;20076;-66
2023/09/21 10:12:29;;;;;;;17.13;12.40;;;;;;;17.10;100.00;99690.38;5012818;28;20034;-66
2023/09/21 10:14:55;;;;;;;17.65;12.40;;;;;;;17.20;100.00;99686.91;5024340;28;20021;-66
2023/09/21 10:17:26;;;;;;;17.00;11.85;;;;;;;17.27;100.00;99684.22;5015109;28;20140;-65
2023/09/21 10:20:14;;;;;;;15.85;11.40;;;;;;;17.29;100.00;99678.25;5012333;28;20033;-66
2023/09/21 10:22:44;;;;;;;17.70;12.13;;;;;;;17.25;100.00;99678.22;5012166;28;20053;-66
2023/09/21 10:25:13;;;;;;;17.50;12.07;;;;;;;17.22;100.00;99680.97;5012077;28;20036;-66
2023/09/21 10:27:39;;;;;;;27.67;15.90;;;;;;;17.07;100.00;99682.78;5012201;28;20061;-66
2023/09/21 10:30:09;;;;;;;17.65;11.50;;;;;;;16.82;100.00;99674.81;5011942;28;20069;-67
2023/09/21 10:32:51;;;;;;;18.67;12.57;;;;;;;16.73;100.00;99677.06;5012353;28;20049;-67
2023/09/21 10:35:48;;;;;;;19.33;13.07;;;;;;;16.68;100.00;99675.41;5012266;28;20038;-66
2023/09/21 10:38:16;;;;;;;16.63;12.10;;;;;;;16.77;100.00;99675.94;5012175;28;20056;-66
2023/09/21 10:40:42;;;;;;;18.00;12.13;;;;;;;16.80;100.00;99672.41;5012501;28;20095;-66
2023/09/21 10:43:38;;;;;;;18.10;12.73;;;;;;;16.88;100.00;99664.94;5011687;28;20034;-66
2023/09/21 10:46:21;;;;;;;18.33;13.35;;;;;;;16.97;100.00;99650.69;5012165;28;20029;-66
2023/09/21 10:48:49;;;;;;;19.70;12.98;;;;;;;17.04;100.00;99653.59;5012375;28;20109;-66
2023/09/21 10:51:14;;;;;;;17.52;12.40;;;;;;;17.03;100.00;99649.19;5012532;28;20756;-66
2023/09/21 10:53:41;;;;;;;18.50;13.50;;;;;;;17.06;100.00;99651.22;5011505;28;20207;-66
2023/09/21 10:56:06;;;;;;;19.65;13.45;;;;;;;17.10;100.00;99640.91;5010557;28;20493;-66
2023/09/21 10:58:32;;;;;;;18.00;13.32;;;;;;;17.23;100.00;99641.44;5010060;28;20033;-66
2023/09/21 11:01:00;;;;;;;19.10;13.48;;;;;;;17.36;100.00;99630.81;5010869;28;20110;-66
2023/09/21 11:03:28;;;;;;;21.67;17.23;;;;;;;17.54;100.00;99641.38;5010439;28;20022;-66
2023/09/21 11:05:54;;;;;;;21.38;15.93;;;;;;;17.60;100.00;99634.28;5011308;28;20038;-66
2023/09/21 11:08:24;;;;;;;19.48;14.95;;;;;;;17.61;100.00;99627.50;5011654;28;20033;-66
2023/09/21 11:10:50;;;;;;;19.08;14.38;;;;;;;17.68;100.00;99616.38;5011388;28;20026;-66
2023/09/21 11:13:19;;;;;;;19.38;14.38;;;;;;;17.76;100.00;99609.66;5010902;28;20053;-66
2023/09/21 11:15:45;;;;;;;20.52;14.25;;;;;;;17.85;100.00;99606.56;5010386;28;21019;-66
2023/09/21 11:18:10;;;;;;;19.73;14.45;;;;;;;17.93;100.00;99599.00;5010001;28;20666;-66
2023/09/21 11:20:36;;;;;;;19.42;14.02;;;;;;;17.97;100.00;99597.09;5010975;28;20504;-66
2023/09/21 11:23:02;;;;;;;19.40;14.10;;;;;;;18.05;100.00;99595.94;5004248;28;20117;-66
2023/09/21 11:25:27;;;;;;;18.00;13.05;;;;;;;18.13;100.00;99596.81;4998624;28;20485;-66
2023/09/21 11:27:53;;;;;;;18.50;13.00;;;;;;;18.21;100.00;99590.06;5010776;28;20034;-66
2023/09/21 11:30:18;;;;;;;17.42;12.45;;;;;;;18.28;100.00;99588.50;5033774;22;20594;-66
2023/09/21 11:32:49;;;;;;;19.17;12.68;;;;;;;18.32;100.00;99592.94;5001175;28;20394;-66
2023/09/21 11:35:16;;;;;;;18.48;12.13;;;;;;;18.33;100.00;99594.53;5026056;28;20018;-65
2023/09/21 11:37:42;;;;;;;18.52;12.40;;;;;;;18.34;100.00;99593.34;5016711;28;20037;-66
2023/09/21 11:40:13;;;;;;;17.02;12.13;;;;;;;18.35;100.00;99594.97;5023172;28;20521;-66
2023/09/21 11:42:45;;;;;;;19.27;12.00;;;;;;;18.34;100.00;99590.56;5012844;28;20094;-66
2023/09/21 11:45:19;;;;;;;18.80;12.98;;;;;;;18.36;100.00;99590.16;5012837;28;20091;-64